Time;durP1;ratioP1;P1;durP2;ratioP2;P2;SDS_P1;SDS_P2;PMS_P1;PMS_P2;Temp;Humidity;BMP_temperature;BMP_pressure;BME280_temperature;BME280_humidity;BME280_pressure;Samples;Min_cycle;Max_cycle;Signal;HPM_P1;HPM_P2
2023/03/09 00:00:54;;;;;;;42.50;24.00;;;4.30;94.30;;;;;;5012983;28;21093;-73
2023/03/09 00:03:20;;;;;;;39.67;22.45;;;4.50;92.80;;;;;;5013030;28;20894;-73
2023/03/09 00:05:58;;;;;;;42.25;24.27;;;4.30;93.50;;;;;;5013194;28;20388;-73
2023/03/09 00:08:27;;;;;;;42.95;23.13;;;4.50;94.80;;;;;;5013116;28;20389;-73
2023/03/09 00:10:53;;;;;;;40.40;22.50;;;4.30;93.60;;;;;;5012619;28;20922;-74
2023/03/09 00:13:20;;;;;;;37.10;21.30;;;4.50;91.00;;;;;;5013203;28;20393;-73
2023/03/09 00:15:49;;;;;;;38.80;20.80;;;4.60;89.00;;;;;;5014330;28;20445;-74
2023/03/09 00:18:19;;;;;;;38.58;20.80;;;4.70;86.40;;;;;;5014486;28;20399;-74
2023/03/09 00:20:45;;;;;;;39.28;21.85;;;4.50;88.10;;;;;;5032338;28;20453;-73
2023/03/09 00:23:11;;;;;;;37.87;20.17;;;4.50;90.90;;;;;;5026303;28;20558;-73
2023/03/09 00:25:38;;;;;;;38.15;21.98;;;4.50;90.50;;;;;;5019381;28;20384;-72
2023/03/09 00:28:03;;;;;;;36.05;20.92;;;4.50;89.50;;;;;;5012464;28;20484;-73
2023/03/09 00:30:29;;;;;;;35.92;19.38;;;4.30;91.10;;;;;;5012095;28;20421;-72
2023/03/09 00:32:54;;;;;;;34.78;19.73;;;4.40;92.40;;;;;;5012401;28;20582;-73
2023/03/09 00:35:20;;;;;;;32.77;18.63;;;4.50;90.80;;;;;;5012432;28;20419;-74
2023/03/09 00:37:46;;;;;;;35.00;20.07;;;4.40;88.30;;;;;;5012680;28;20400;-73
2023/03/09 00:40:14;;;;;;;34.35;18.25;;;4.40;90.20;;;;;;5012756;28;20439;-72
2023/03/09 00:42:42;;;;;;;35.83;18.52;;;4.30;88.90;;;;;;5012082;28;20502;-74
2023/03/09 00:45:08;;;;;;;32.25;17.95;;;4.20;89.20;;;;;;5012517;28;20387;-73
2023/03/09 00:47:34;;;;;;;32.08;18.42;;;4.30;90.10;;;;;;5012020;28;20385;-72
2023/03/09 00:49:59;;;;;;;33.92;19.58;;;4.20;90.30;;;;;;5012688;28;20435;-73
2023/03/09 00:52:25;;;;;;;36.27;19.30;;;4.30;91.80;;;;;;5012171;28;20467;-73
2023/03/09 00:54:53;;;;;;;31.30;17.87;;;4.30;91.30;;;;;;5012504;28;20392;-73
2023/03/09 00:57:20;;;;;;;32.40;19.98;;;4.30;90.80;;;;;;5012380;28;20892;-75
2023/03/09 00:59:46;;;;;;;36.08;20.20;;;4.20;93.60;;;;;;5012055;28;20424;-73
2023/03/09 01:02:11;;;;;;;29.52;18.27;;;4.20;96.00;;;;;;5011772;28;20882;-73
2023/03/09 01:04:37;;;;;;;33.13;18.88;;;4.20;96.70;;;;;;5012055;28;20385;-73
2023/03/09 01:07:03;;;;;;;32.10;19.70;;;4.30;95.90;;;;;;5011719;28;20889;-73
2023/03/09 01:09:28;;;;;;;33.40;19.20;;;4.20;96.50;;;;;;5011898;28;20902;-73
2023/03/09 01:11:54;;;;;;;31.77;18.03;;;4.20;96.60;;;;;;5011404;28;20403;-73
2023/03/09 01:14:19;;;;;;;28.40;15.77;;;4.40;94.60;;;;;;5011765;28;20385;-74
2023/03/09 01:16:45;;;;;;;29.40;17.23;;;4.40;88.60;;;;;;5011876;28;20403;-72
2023/03/09 01:19:10;;;;;;;25.77;15.27;;;4.40;87.50;;;;;;5011381;28;20403;-73
2023/03/09 01:21:36;;;;;;;27.67;15.50;;;4.30;88.70;;;;;;5011487;28;20400;-73
2023/03/09 01:24:01;;;;;;;29.60;15.70;;;4.20;88.80;;;;;;5011441;28;20392;-72
2023/03/09 01:26:27;;;;;;;26.08;14.85;;;4.10;91.30;;;;;;5012588;28;20877;-73
2023/03/09 01:28:53;;;;;;;26.90;15.95;;;4.10;91.20;;;;;;5012779;28;20397;-73
2023/03/09 01:31:18;;;;;;;27.93;15.10;;;4.10;92.50;;;;;;5011676;28;20391;-73
2023/03/09 01:33:46;;;;;;;23.30;13.83;;;4.10;91.60;;;;;;5011764;28;20384;-73
2023/03/09 01:36:14;;;;;;;26.52;15.32;;;4.00;91.10;;;;;;5012191;28;20447;-74
2023/03/09 01:38:39;;;;;;;25.73;15.43;;;3.90;92.90;;;;;;5011323;28;20385;-72
2023/03/09 01:41:05;;;;;;;25.77;13.40;;;4.00;93.50;;;;;;5011026;28;20415;-72
2023/03/09 01:43:34;;;;;;;25.27;15.10;;;4.10;90.20;;;;;;5011132;28;20519;-73
2023/03/09 01:46:22;;;;;;;25.13;14.63;;;4.00;90.70;;;;;;5011456;28;20389;-73
2023/03/09 01:48:51;;;;;;;25.52;15.95;;;3.90;92.00;;;;;;5014237;28;20384;-73
2023/03/09 01:51:19;;;;;;;23.15;14.65;;;3.90;93.10;;;;;;5016144;28;20487;-73
2023/03/09 01:53:46;;;;;;;22.63;14.48;;;3.90;93.00;;;;;;5016237;28;20515;-72
2023/03/09 01:56:16;;;;;;;23.42;13.43;;;4.00;91.80;;;;;;5012590;28;20720;-72
2023/03/09 01:58:41;;;;;;;21.00;12.57;;;3.90;89.40;;;;;;5011915;28;20739;-72
2023/03/09 02:01:09;;;;;;;20.98;13.43;;;3.90;89.60;;;;;;5011138;28;20393;-73
2023/03/09 02:03:40;;;;;;;21.55;13.40;;;3.80;90.40;;;;;;5011347;28;20400;-74
2023/03/09 02:06:09;;;;;;;23.75;14.43;;;3.80;90.90;;;;;;5009919;28;20392;-74
2023/03/09 02:08:36;;;;;;;25.08;14.82;;;3.80;92.70;;;;;;5011365;28;20456;-74
2023/03/09 02:11:05;;;;;;;21.48;13.65;;;3.90;91.30;;;;;;5009629;28;20393;-73
2023/03/09 02:13:35;;;;;;;24.17;14.00;;;3.90;90.30;;;;;;5011267;28;20911;-73
2023/03/09 02:16:01;;;;;;;24.05;14.55;;;3.90;91.10;;;;;;5028464;28;20399;-73
2023/03/09 02:18:27;;;;;;;22.00;14.07;;;3.90;90.10;;;;;;5030089;28;20900;-73
2023/03/09 02:21:11;;;;;;;22.25;14.00;;;3.90;88.80;;;;;;5030598;28;20422;-72
2023/03/09 02:23:41;;;;;;;22.70;14.23;;;3.90;88.10;;;;;;5030830;28;20395;-72
2023/03/09 02:26:25;;;;;;;26.00;15.57;;;4.00;88.50;;;;;;5029721;28;20470;-73
2023/03/09 02:28:51;;;;;;;26.20;16.17;;;4.00;89.90;;;;;;5031024;28;20821;-72
2023/03/09 02:31:19;;;;;;;27.10;16.60;;;4.00;89.70;;;;;;5030408;28;20478;-73
2023/03/09 02:33:44;;;;;;;27.13;15.60;;;4.00;88.80;;;;;;5030778;28;20748;-72
2023/03/09 02:36:10;;;;;;;29.40;16.20;;;3.90;90.40;;;;;;5030305;28;20482;-73
2023/03/09 02:38:35;;;;;;;28.98;15.75;;;3.90;90.40;;;;;;5027213;28;20393;-73
2023/03/09 02:41:03;;;;;;;30.87;17.80;;;3.80;91.70;;;;;;5010927;28;20393;-74
2023/03/09 02:43:35;;;;;;;34.15;18.95;;;3.70;94.10;;;;;;5009817;28;20386;-73
2023/03/09 02:46:00;;;;;;;33.95;16.00;;;3.70;94.80;;;;;;5010720;28;20381;-73
2023/03/09 02:48:26;;;;;;;35.47;19.20;;;3.70;93.00;;;;;;5010605;28;20378;-73
2023/03/09 02:50:52;;;;;;;35.70;19.83;;;3.60;95.80;;;;;;5010833;28;20645;-74
2023/03/09 02:53:18;;;;;;;32.10;18.70;;;3.50;97.40;;;;;;5010484;28;20419;-73
2023/03/09 02:55:44;;;;;;;35.90;20.13;;;3.60;98.90;;;;;;5014156;28;20392;-73
2023/03/09 02:58:09;;;;;;;35.30;20.43;;;3.50;99.90;;;;;;5014169;28;20381;-74
2023/03/09 03:00:35;;;;;;;34.20;19.05;;;3.60;99.90;;;;;;5014586;28;20389;-74
2023/03/09 03:03:00;;;;;;;34.63;18.25;;;3.80;99.00;;;;;;5014216;28;20405;-74
2023/03/09 03:05:26;;;;;;;35.50;18.83;;;3.80;94.70;;;;;;5014216;28;20425;-74
2023/03/09 03:07:52;;;;;;;34.33;20.10;;;3.90;94.10;;;;;;5012880;28;20443;-73
2023/03/09 03:10:18;;;;;;;39.10;20.20;;;3.70;95.60;;;;;;5014033;28;20443;-73
2023/03/09 03:12:44;;;;;;;34.03;19.85;;;3.80;96.10;;;;;;5013422;28;20855;-73
2023/03/09 03:15:10;;;;;;;36.35;19.50;;;3.90;96.60;;;;;;5013559;28;20396;-73
2023/03/09 03:17:36;;;;;;;37.42;20.35;;;3.90;95.90;;;;;;5013728;28;20397;-74
2023/03/09 03:20:04;;;;;;;37.80;20.02;;;3.80;97.30;;;;;;5013656;28;20434;-74
2023/03/09 03:22:30;;;;;;;33.17;18.95;;;3.90;95.70;;;;;;5013302;28;20413;-73
2023/03/09 03:24:56;;;;;;;36.00;20.50;;;3.90;93.50;;;;;;5013586;28;20765;-73
2023/03/09 03:27:21;;;;;;;35.90;19.67;;;3.90;92.20;;;;;;5013485;28;20933;-74
2023/03/09 03:29:50;;;;;;;34.53;19.20;;;3.90;92.60;;;;;;5013259;28;20404;-73
2023/03/09 03:32:15;;;;;;;35.25;20.80;;;3.80;92.90;;;;;;5013024;28;20898;-73
2023/03/09 03:34:41;;;;;;;39.97;20.92;;;3.70;92.40;;;;;;5013777;28;20466;-73
2023/03/09 03:37:06;;;;;;;41.55;22.10;;;3.80;93.50;;;;;;5014282;28;20385;-73
2023/03/09 03:39:32;;;;;;;46.22;22.65;;;3.80;95.70;;;;;;5013800;28;20381;-73
2023/03/09 03:41:58;;;;;;;41.67;21.70;;;3.90;92.50;;;;;;5013997;28;20413;-74
2023/03/09 03:44:23;;;;;;;44.57;23.30;;;3.80;91.50;;;;;;5013425;28;20488;-74
2023/03/09 03:46:49;;;;;;;41.13;22.10;;;3.80;92.10;;;;;;5014176;28;20395;-73
2023/03/09 03:49:14;;;;;;;41.33;21.07;;;3.80;92.50;;;;;;5014905;28;20389;-73
2023/03/09 03:51:40;;;;;;;45.40;23.13;;;3.70;91.80;;;;;;5014645;28;20387;-73
2023/03/09 03:54:05;;;;;;;47.97;23.50;;;3.70;93.70;;;;;;5014063;28;20818;-74
2023/03/09 03:56:32;;;;;;;48.20;23.45;;;3.60;94.90;;;;;;5014261;28;20408;-74
2023/03/09 03:58:57;;;;;;;54.63;24.60;;;3.60;95.90;;;;;;5012884;28;20389;-74
2023/03/09 04:01:23;;;;;;;47.95;24.42;;;3.60;96.40;;;;;;5012888;28;20396;-74
2023/03/09 04:03:48;;;;;;;51.50;24.10;;;3.60;96.80;;;;;;5013192;28;20719;-74
2023/03/09 04:06:14;;;;;;;52.87;24.63;;;3.70;96.10;;;;;;5013724;28;20753;-73
2023/03/09 04:08:40;;;;;;;58.87;27.10;;;3.60;96.30;;;;;;5013914;28;20904;-74
2023/03/09 04:11:07;;;;;;;58.00;26.33;;;3.60;96.70;;;;;;5013573;28;20747;-74
2023/03/09 04:13:32;;;;;;;60.28;27.55;;;3.70;97.30;;;;;;5013637;28;20447;-74
2023/03/09 04:15:58;;;;;;;63.30;27.73;;;3.70;95.60;;;;;;5012773;28;20797;-74
2023/03/09 04:18:23;;;;;;;60.50;28.10;;;3.70;96.60;;;;;;5013018;28;20774;-74
2023/03/09 04:20:49;;;;;;;67.87;29.37;;;3.70;97.50;;;;;;5013326;28;20739;-74
2023/03/09 04:23:14;;;;;;;65.40;28.40;;;3.80;97.60;;;;;;5017684;28;20739;-74
2023/03/09 04:25:40;;;;;;;70.27;30.70;;;3.80;95.90;;;;;;5017922;28;20744;-74
2023/03/09 04:28:05;;;;;;;67.22;29.85;;;3.80;96.90;;;;;;5014806;28;20401;-73
2023/03/09 04:30:31;;;;;;;67.13;29.90;;;3.90;96.20;;;;;;5013498;28;20396;-74
2023/03/09 04:32:57;;;;;;;65.95;29.58;;;3.90;94.70;;;;;;5011982;28;20538;-73
2023/03/09 04:35:22;;;;;;;71.90;30.27;;;3.80;95.40;;;;;;5012094;28;20557;-73
2023/03/09 04:37:48;;;;;;;65.10;30.57;;;3.90;96.00;;;;;;5010520;28;20389;-73
2023/03/09 04:40:14;;;;;;;66.33;29.43;;;3.90;93.60;;;;;;5012617;28;20403;-73
2023/03/09 04:42:40;;;;;;;66.07;29.00;;;3.90;93.30;;;;;;5012293;28;20416;-73
2023/03/09 04:45:06;;;;;;;73.07;31.35;;;4.00;91.60;;;;;;5012916;28;20385;-73
2023/03/09 04:47:32;;;;;;;75.97;33.72;;;4.00;91.60;;;;;;5014288;28;20742;-73
2023/03/09 04:49:57;;;;;;;75.80;33.37;;;3.80;93.10;;;;;;5011927;28;20492;-74
2023/03/09 04:52:23;;;;;;;77.97;33.58;;;3.60;98.20;;;;;;5011950;28;20420;-74
2023/03/09 04:54:49;;;;;;;77.18;33.50;;;3.90;99.20;;;;;;5011960;28;20388;-73
2023/03/09 04:57:15;;;;;;;77.38;33.13;;;3.90;94.00;;;;;;5011703;28;20439;-76
2023/03/09 04:59:40;;;;;;;72.20;32.57;;;3.90;93.40;;;;;;5011700;28;20393;-74
2023/03/09 05:02:06;;;;;;;80.88;34.55;;;4.00;90.40;;;;;;5011507;28;20448;-74
2023/03/09 05:04:32;;;;;;;81.88;35.20;;;3.70;92.80;;;;;;5012259;28;20430;-72
2023/03/09 05:06:57;;;;;;;85.70;33.90;;;3.90;95.00;;;;;;5013584;28;20384;-74
2023/03/09 05:09:23;;;;;;;79.47;33.40;;;4.00;91.80;;;;;;5013099;28;20455;-75
2023/03/09 05:11:52;;;;;;;83.85;35.35;;;4.10;91.80;;;;;;5013906;28;20877;-75
2023/03/09 05:14:19;;;;;;;82.28;34.30;;;4.10;89.60;;;;;;5012310;28;20870;-75
2023/03/09 05:16:45;;;;;;;78.00;32.90;;;4.00;91.50;;;;;;5011435;28;20746;-75
2023/03/09 05:19:11;;;;;;;77.25;32.15;;;4.10;90.90;;;;;;5011671;28;20483;-73
2023/03/09 05:21:37;;;;;;;76.68;32.38;;;4.10;88.10;;;;;;5011407;28;20566;-74
2023/03/09 05:24:04;;;;;;;76.13;32.47;;;4.10;89.10;;;;;;5011474;28;20433;-73
2023/03/09 05:26:29;;;;;;;77.37;32.00;;;4.10;89.50;;;;;;5010087;28;20767;-74
2023/03/09 05:28:55;;;;;;;80.50;34.22;;;4.00;91.10;;;;;;5011240;28;20491;-74
2023/03/09 05:31:21;;;;;;;87.53;35.05;;;3.90;93.60;;;;;;5026264;28;20754;-74
2023/03/09 05:33:46;;;;;;;80.10;33.00;;;4.00;92.10;;;;;;5011136;28;20392;-74
2023/03/09 05:36:32;;;;;;;78.27;33.20;;;4.00;91.00;;;;;;5010811;28;20933;-74
2023/03/09 05:38:59;;;;;;;79.15;32.95;;;4.00;90.50;;;;;;5010955;28;20388;-73
2023/03/09 05:41:24;;;;;;;81.75;30.88;;;4.00;90.60;;;;;;5011040;28;20397;-73
2023/03/09 05:43:50;;;;;;;81.87;32.93;;;4.00;90.00;;;;;;5009733;28;20514;-74
2023/03/09 05:46:17;;;;;;;81.30;33.17;;;3.90;90.50;;;;;;5011063;28;20414;-74
2023/03/09 05:48:45;;;;;;;78.40;32.95;;;3.90;92.20;;;;;;5010871;28;20385;-74
2023/03/09 05:51:11;;;;;;;82.35;32.85;;;3.90;93.00;;;;;;5010902;28;20436;-74
2023/03/09 05:53:37;;;;;;;76.72;32.17;;;3.90;93.10;;;;;;5011552;28;20423;-73
2023/03/09 05:56:05;;;;;;;78.95;31.65;;;3.90;92.00;;;;;;5011503;28;20874;-74
2023/03/09 05:58:31;;;;;;;78.57;31.50;;;3.90;92.00;;;;;;5012245;28;20389;-75
2023/03/09 06:00:56;;;;;;;81.80;33.60;;;3.90;93.00;;;;;;5011164;28;20472;-75
2023/03/09 06:03:23;;;;;;;76.82;31.33;;;3.90;92.90;;;;;;5009783;28;20479;-74
2023/03/09 06:06:09;;;;;;;81.40;33.53;;;4.00;93.40;;;;;;5011428;28;20377;-75
2023/03/09 06:08:35;;;;;;;80.93;33.33;;;4.00;92.30;;;;;;5010673;28;20474;-73
2023/03/09 06:11:00;;;;;;;84.85;33.35;;;4.00;92.20;;;;;;5010610;28;20878;-74
2023/03/09 06:13:27;;;;;;;80.63;32.40;;;4.00;91.40;;;;;;5010790;28;20462;-73
2023/03/09 06:15:53;;;;;;;70.35;29.35;;;4.00;92.10;;;;;;5010982;28;20488;-74
2023/03/09 06:18:20;;;;;;;91.40;35.20;;;3.90;91.30;;;;;;5011167;28;20472;-74
2023/03/09 06:20:46;;;;;;;92.45;34.35;;;3.80;93.50;;;;;;5012298;28;20388;-73
2023/03/09 06:23:12;;;;;;;82.95;34.75;;;3.80;95.30;;;;;;5031086;28;20446;-73
2023/03/09 06:25:38;;;;;;;88.10;34.90;;;3.80;96.60;;;;;;5030252;28;20419;-73
2023/03/09 06:28:04;;;;;;;88.78;33.85;;;3.90;97.40;;;;;;5030197;28;20397;-73
2023/03/09 06:30:29;;;;;;;77.30;32.10;;;3.90;97.20;;;;;;5031347;28;20385;-74
2023/03/09 06:32:56;;;;;;;84.35;34.55;;;4.00;97.80;;;;;;5030281;28;20389;-73
2023/03/09 06:35:25;;;;;;;78.68;32.50;;;4.10;95.00;;;;;;5029642;28;20456;-72
2023/03/09 06:37:50;;;;;;;77.82;32.03;;;4.20;91.00;;;;;;5028687;28;20889;-72
2023/03/09 06:40:17;;;;;;;80.63;32.47;;;4.10;90.00;;;;;;5030190;28;20411;-72
2023/03/09 06:42:43;;;;;;;72.32;32.38;;;4.10;91.60;;;;;;5026184;28;20442;-74
2023/03/09 06:45:09;;;;;;;80.15;33.45;;;4.20;91.80;;;;;;5026865;28;20416;-74
2023/03/09 06:47:35;;;;;;;83.20;35.00;;;4.10;93.90;;;;;;5028089;28;20471;-74
2023/03/09 06:50:01;;;;;;;80.27;32.97;;;4.10;95.30;;;;;;5028602;28;20389;-74
2023/03/09 06:52:27;;;;;;;75.22;33.97;;;4.00;96.80;;;;;;5017137;28;20392;-73
2023/03/09 06:54:53;;;;;;;68.17;29.93;;;4.00;99.90;;;;;;5016882;28;20816;-74
2023/03/09 06:57:19;;;;;;;66.28;30.45;;;4.20;99.60;;;;;;5015847;28;20424;-74
2023/03/09 06:59:44;;;;;;;63.47;30.73;;;4.20;98.80;;;;;;5020902;28;20400;-74
2023/03/09 07:02:14;;;;;;;75.33;32.87;;;4.30;99.10;;;;;;5029638;28;20455;-73
2023/03/09 07:04:40;;;;;;;74.93;34.63;;;4.40;96.90;;;;;;5022313;28;20381;-74
2023/03/09 07:07:06;;;;;;;91.85;38.30;;;4.40;96.30;;;;;;5013929;28;20384;-73
2023/03/09 07:09:31;;;;;;;90.95;39.50;;;4.40;96.40;;;;;;5013912;28;20384;-73
2023/03/09 07:11:58;;;;;;;82.10;37.50;;;4.50;95.50;;;;;;5013530;28;20389;-73
2023/03/09 07:14:24;;;;;;;68.32;32.08;;;4.60;93.70;;;;;;5013599;28;20482;-74
2023/03/09 07:16:54;;;;;;;59.55;29.08;;;4.70;92.50;;;;;;5013903;28;20439;-74
2023/03/09 07:19:20;;;;;;;60.47;28.50;;;4.80;90.10;;;;;;5014052;28;20735;-73
2023/03/09 07:21:46;;;;;;;65.13;28.92;;;4.80;89.10;;;;;;5013414;28;20462;-73
2023/03/09 07:24:12;;;;;;;63.67;28.93;;;4.80;87.10;;;;;;5013542;28;20570;-73
2023/03/09 07:26:37;;;;;;;62.88;28.98;;;4.90;86.30;;;;;;5013731;28;20389;-74
2023/03/09 07:29:03;;;;;;;62.80;30.70;;;4.90;84.70;;;;;;5013870;28;20393;-74
2023/03/09 07:31:29;;;;;;;60.50;28.23;;;4.90;84.90;;;;;;5013534;28;20785;-73
2023/03/09 07:33:56;;;;;;;55.78;27.05;;;5.00;83.10;;;;;;5013636;28;20435;-74
2023/03/09 07:36:22;;;;;;;53.45;25.88;;;5.00;82.90;;;;;;5013773;28;20478;-72
2023/03/09 07:38:48;;;;;;;60.42;27.40;;;4.90;82.00;;;;;;5013598;28;20404;-74
2023/03/09 07:41:14;;;;;;;57.30;28.67;;;5.00;81.20;;;;;;5012444;28;20385;-74
2023/03/09 07:43:43;;;;;;;59.88;28.73;;;5.10;82.00;;;;;;5013252;28;20412;-75
2023/03/09 07:46:13;;;;;;;61.67;29.30;;;5.20;80.90;;;;;;5013100;28;20890;-74
2023/03/09 07:48:39;;;;;;;57.67;28.30;;;5.20;80.30;;;;;;5013263;28;20389;-74
2023/03/09 07:51:06;;;;;;;56.58;27.27;;;5.20;80.00;;;;;;5011151;28;20385;-73
2023/03/09 07:53:34;;;;;;;58.88;28.92;;;5.20;80.20;;;;;;5012957;28;20465;-75
2023/03/09 07:56:03;;;;;;;57.70;28.23;;;5.40;80.90;;;;;;5013107;28;20456;-72
2023/03/09 07:58:33;;;;;;;62.50;29.95;;;5.60;77.30;;;;;;5012681;28;20871;-73
2023/03/09 08:01:00;;;;;;;62.40;29.10;;;5.50;75.40;;;;;;5012609;28;20378;-74
2023/03/09 08:03:27;;;;;;;55.95;26.92;;;5.70;75.90;;;;;;5012784;28;20413;-73
2023/03/09 08:05:55;;;;;;;59.70;28.45;;;6.30;69.00;;;;;;5017856;28;20443;-74
2023/03/09 08:08:25;;;;;;;54.80;27.75;;;6.60;63.50;;;;;;5012858;28;20384;-74
2023/03/09 08:10:52;;;;;;;64.03;29.95;;;6.40;61.00;;;;;;5012817;28;20396;-73
2023/03/09 08:13:19;;;;;;;63.75;30.60;;;6.30;62.40;;;;;;5012676;28;20869;-74
2023/03/09 08:15:45;;;;;;;61.58;28.75;;;6.40;63.10;;;;;;5013046;28;20399;-75
2023/03/09 08:18:12;;;;;;;61.03;28.83;;;6.20;62.60;;;;;;5013018;28;20411;-74
2023/03/09 08:20:38;;;;;;;61.67;29.73;;;6.00;65.20;;;;;;5013517;28;20735;-74
2023/03/09 08:23:03;;;;;;;64.18;30.10;;;5.90;67.20;;;;;;5014773;28;20401;-73
2023/03/09 08:25:30;;;;;;;73.18;32.80;;;5.80;68.80;;;;;;5023509;28;20389;-74
2023/03/09 08:27:55;;;;;;;68.93;31.63;;;5.80;69.30;;;;;;5023460;28;20483;-73
2023/03/09 08:30:23;;;;;;;69.28;31.33;;;5.90;70.80;;;;;;5011999;28;21276;-73
2023/03/09 08:32:50;;;;;;;71.38;31.85;;;6.00;71.60;;;;;;5012141;28;20460;-73
2023/03/09 08:35:20;;;;;;;70.88;32.95;;;6.10;70.50;;;;;;5011146;28;20404;-73
2023/03/09 08:37:46;;;;;;;69.90;29.60;;;6.10;68.20;;;;;;5012386;28;20385;-74
2023/03/09 08:40:13;;;;;;;74.20;31.67;;;6.00;67.80;;;;;;5012393;28;20480;-73
2023/03/09 08:42:39;;;;;;;78.82;32.58;;;5.70;71.60;;;;;;5012395;28;20405;-73
2023/03/09 08:45:07;;;;;;;74.82;31.63;;;5.60;75.60;;;;;;5012138;28;20506;-73
2023/03/09 08:47:33;;;;;;;73.70;31.13;;;5.50;77.00;;;;;;5012173;28;20388;-74
2023/03/09 08:49:59;;;;;;;77.57;31.63;;;5.40;77.40;;;;;;5012337;28;20417;-73
2023/03/09 08:52:24;;;;;;;71.33;31.53;;;5.40;78.90;;;;;;5010840;28;20420;-73
2023/03/09 08:54:50;;;;;;;73.80;33.57;;;5.40;80.70;;;;;;5011820;28;20397;-73
2023/03/09 08:57:17;;;;;;;77.93;32.80;;;5.50;81.20;;;;;;5011813;28;20471;-75
2023/03/09 08:59:43;;;;;;;75.82;33.58;;;5.50;81.60;;;;;;5011715;28;20427;-74
2023/03/09 09:02:14;;;;;;;72.00;32.20;;;5.60;80.60;;;;;;5012017;28;20408;-73
2023/03/09 09:04:43;;;;;;;79.82;35.50;;;5.50;80.70;;;;;;5012316;28;20488;-74
2023/03/09 09:07:10;;;;;;;75.82;31.90;;;5.60;82.30;;;;;;5011751;28;20392;-73
2023/03/09 09:09:36;;;;;;;76.23;33.70;;;5.60;80.10;;;;;;5011595;28;20482;-76
2023/03/09 09:12:02;;;;;;;81.65;38.92;;;5.60;80.70;;;;;;5011696;28;20808;-73
2023/03/09 09:14:28;;;;;;;79.22;35.75;;;5.60;83.30;;;;;;5011771;28;20392;-74
2023/03/09 09:16:53;;;;;;;76.95;35.13;;;5.60;83.20;;;;;;5011140;28;20385;-74
2023/03/09 09:19:19;;;;;;;59.78;28.67;;;6.00;78.30;;;;;;5011309;28;20638;-74
2023/03/09 09:21:45;;;;;;;62.30;29.15;;;6.00;70.50;;;;;;5011120;28;20396;-74
2023/03/09 09:24:10;;;;;;;63.83;30.50;;;5.90;72.40;;;;;;5011532;28;20412;-74
2023/03/09 09:26:36;;;;;;;62.73;29.83;;;5.80;73.50;;;;;;5011574;28;20416;-73
2023/03/09 09:29:02;;;;;;;67.40;32.50;;;5.80;74.40;;;;;;5012358;28;20476;-74
2023/03/09 09:31:28;;;;;;;69.57;31.55;;;5.80;75.80;;;;;;5015642;28;20391;-74
2023/03/09 09:33:56;;;;;;;65.65;30.85;;;5.60;80.40;;;;;;5022676;28;20393;-74
2023/03/09 09:36:22;;;;;;;60.80;31.92;;;5.70;81.40;;;;;;5025824;28;20470;-74
2023/03/09 09:38:47;;;;;;;62.38;30.25;;;5.90;79.70;;;;;;5013339;28;20443;-73
2023/03/09 09:41:45;;;;;;;59.67;29.93;;;6.00;71.50;;;;;;5011808;28;20385;-74
2023/03/09 09:44:16;;;;;;;61.38;31.15;;;6.00;72.30;;;;;;5011142;28;20755;-74
2023/03/09 09:46:42;;;;;;;65.15;31.23;;;6.10;72.20;;;;;;5011567;28;20381;-74
2023/03/09 09:49:16;;;;;;;68.28;32.67;;;6.30;71.60;;;;;;5012770;28;20435;-74
2023/03/09 09:52:01;;;;;;;64.78;31.25;;;6.40;69.60;;;;;;5014458;28;20889;-74
2023/03/09 09:54:40;;;;;;;56.42;29.30;;;6.40;72.00;;;;;;5013119;28;20799;-75
2023/03/09 09:57:16;;;;;;;56.10;31.07;;;6.50;68.70;;;;;;5011635;28;20440;-74
2023/03/09 09:59:54;;;;;;;54.83;28.60;;;6.50;70.30;;;;;;5014262;28;20386;-76
2023/03/09 10:02:35;;;;;;;58.13;30.35;;;6.50;71.10;;;;;;5013128;28;20408;-76
2023/03/09 10:05:26;;;;;;;56.10;28.30;;;7.10;60.90;;;;;;5012983;28;20798;-74
2023/03/09 10:07:53;;;;;;;57.65;29.70;;;7.30;57.70;;;;;;5016305;28;20413;-75
2023/03/09 10:10:24;;;;;;;60.38;31.35;;;7.00;59.30;;;;;;5015428;28;20836;-75
2023/03/09 10:12:50;;;;;;;60.05;29.70;;;7.00;64.00;;;;;;5030523;28;20385;-74
2023/03/09 10:15:29;;;;;;;57.95;28.95;;;7.20;58.10;;;;;;5014761;28;20830;-75
2023/03/09 10:18:06;;;;;;;59.15;30.33;;;7.10;59.60;;;;;;5014044;28;20417;-75
2023/03/09 10:20:51;;;;;;;57.35;29.55;;;6.90;62.00;;;;;;5017839;28;20813;-75
2023/03/09 10:23:34;;;;;;;64.53;32.92;;;6.70;65.40;;;;;;5017028;28;20532;-73
2023/03/09 10:26:20;;;;;;;62.17;30.38;;;6.50;69.60;;;;;;5011727;28;20385;-74
2023/03/09 10:28:49;;;;;;;65.70;32.78;;;6.80;65.40;;;;;;5011235;28;20425;-76
2023/03/09 10:31:41;;;;;;;68.07;32.63;;;6.90;67.50;;;;;;5010780;28;20527;-74
2023/03/09 10:34:20;;;;;;;68.55;33.17;;;6.90;68.70;;;;;;5010257;28;20392;-74
2023/03/09 10:36:58;;;;;;;66.25;31.75;;;6.90;66.20;;;;;;5010819;28;20380;-73
2023/03/09 10:39:27;;;;;;;65.97;34.10;;;6.60;68.40;;;;;;5011615;28;20401;-75
2023/03/09 10:42:01;;;;;;;72.65;32.78;;;6.50;69.60;;;;;;5013505;28;20917;-74
2023/03/09 10:44:29;;;;;;;65.40;31.70;;;6.70;70.10;;;;;;5015343;28;20417;-75
2023/03/09 10:47:01;;;;;;;67.97;31.70;;;6.70;68.20;;;;;;5014426;28;20572;-75
2023/03/09 10:49:28;;;;;;;65.32;32.28;;;6.70;67.00;;;;;;5011498;28;20411;-75
2023/03/09 10:52:03;;;;;;;61.90;32.00;;;6.70;68.70;;;;;;5012151;28;20393;-75
2023/03/09 10:54:34;;;;;;;64.40;31.23;;;6.90;68.70;;;;;;5011679;28;20378;-76
2023/03/09 10:57:00;;;;;;;63.33;31.20;;;7.00;67.20;;;;;;5011735;28;20480;-74
2023/03/09 10:59:27;;;;;;;64.18;33.50;;;7.10;66.60;;;;;;5011150;28;20480;-74
2023/03/09 11:01:59;;;;;;;61.05;30.95;;;7.40;63.40;;;;;;5010645;28;20681;-74
2023/03/09 11:04:29;;;;;;;60.65;30.92;;;7.60;61.60;;;;;;5010763;28;20401;-76
2023/03/09 11:07:03;;;;;;;66.03;30.80;;;8.00;58.50;;;;;;5011210;28;20385;-75
2023/03/09 11:09:41;;;;;;;60.20;29.80;;;8.70;51.90;;;;;;5011556;28;20935;-74
2023/03/09 11:12:34;;;;;;;60.40;29.75;;;9.00;48.10;;;;;;5011757;28;20393;-73
2023/03/09 11:15:03;;;;;;;53.78;27.00;;;8.90;49.70;;;;;;5011692;28;20389;-75
2023/03/09 11:17:41;;;;;;;54.40;28.80;;;9.10;47.40;;;;;;5014776;28;20381;-73
2023/03/09 11:20:12;;;;;;;55.28;28.80;;;9.00;47.60;;;;;;5014976;28;20400;-74
2023/03/09 11:22:52;;;;;;;57.88;29.13;;;8.70;51.70;;;;;;5015660;28;20755;-74
2023/03/09 11:25:47;;;;;;;55.58;28.90;;;8.40;54.00;;;;;;5014251;28;20377;-74
2023/03/09 11:28:26;;;;;;;58.03;29.67;;;8.20;55.30;;;;;;5012919;28;20441;-74
2023/03/09 11:30:55;;;;;;;63.35;31.70;;;8.10;57.10;;;;;;5013846;28;20392;-74
2023/03/09 11:33:21;;;;;;;56.70;29.35;;;8.00;59.50;;;;;;5014216;28;20770;-75
2023/03/09 11:35:51;;;;;;;57.88;31.92;;;7.90;58.80;;;;;;5013566;28;20450;-75
2023/03/09 11:38:19;;;;;;;58.83;29.20;;;7.90;59.90;;;;;;5015826;28;20381;-75
2023/03/09 11:40:47;;;;;;;58.55;29.30;;;7.90;59.00;;;;;;5014879;28;20527;-73
2023/03/09 11:43:27;;;;;;;60.50;30.50;;;7.90;59.30;;;;;;5014223;28;20405;-74
2023/03/09 11:46:01;;;;;;;53.22;27.25;;;7.90;58.60;;;;;;5014047;28;20374;-73
2023/03/09 11:48:38;;;;;;;63.47;31.00;;;7.90;58.50;;;;;;5013549;28;20385;-75
2023/03/09 11:51:12;;;;;;;61.17;30.50;;;7.80;60.90;;;;;;5013657;28;20404;-74
2023/03/09 11:53:49;;;;;;;66.65;31.60;;;7.90;60.30;;;;;;5013845;28;20420;-74
2023/03/09 11:56:26;;;;;;;64.78;33.13;;;7.90;60.90;;;;;;5014422;28;20464;-75
2023/03/09 11:59:05;;;;;;;68.90;32.45;;;8.00;61.90;;;;;;5014320;28;20400;-74
2023/03/09 12:01:38;;;;;;;71.22;33.88;;;8.00;60.20;;;;;;5012803;28;20858;-75
2023/03/09 12:04:07;;;;;;;80.93;35.93;;;8.00;60.40;;;;;;5013584;28;20385;-75
2023/03/09 12:06:50;;;;;;;77.15;37.60;;;7.80;62.60;;;;;;5013422;28;20473;-76
2023/03/09 12:09:23;;;;;;;76.60;36.05;;;7.80;62.90;;;;;;5013686;28;20392;-74
2023/03/09 12:11:54;;;;;;;77.78;36.83;;;7.80;64.60;;;;;;5013978;28;20392;-75
2023/03/09 12:14:28;;;;;;;85.78;36.38;;;7.70;66.50;;;;;;5012450;28;20485;-76
2023/03/09 12:17:00;;;;;;;81.20;35.53;;;7.70;68.00;;;;;;5014812;28;20798;-76
2023/03/09 12:19:29;;;;;;;72.53;34.67;;;7.70;68.00;;;;;;5015348;28;20467;-74
2023/03/09 12:22:02;;;;;;;68.38;33.55;;;7.80;67.00;;;;;;5015676;28;20466;-74
2023/03/09 12:24:33;;;;;;;68.15;32.40;;;7.90;67.50;;;;;;5017254;28;20385;-74
2023/03/09 12:27:10;;;;;;;60.10;30.95;;;7.90;67.00;;;;;;5019964;28;20418;-73
2023/03/09 12:29:43;;;;;;;59.90;28.70;;;7.90;67.90;;;;;;5017662;28;20415;-76
2023/03/09 12:32:20;;;;;;;58.55;28.65;;;8.00;68.10;;;;;;5014466;28;20395;-76
2023/03/09 12:34:48;;;;;;;56.42;28.77;;;7.90;69.10;;;;;;5013498;28;20389;-74
2023/03/09 12:37:36;;;;;;;59.00;28.17;;;7.90;69.60;;;;;;5012599;28;20399;-73
2023/03/09 12:40:26;;;;;;;59.25;29.23;;;7.60;71.30;;;;;;5012442;28;20467;-74
2023/03/09 12:42:54;;;;;;;54.55;27.40;;;7.70;75.10;;;;;;5012054;28;20412;-74